This is the latest recevied weather packets stored in our database for station/object K1BES. If no packets are shown the sender has not sent any weather packets the latest 10 day(s).
| Time | Temp. | Humidity | Pressure | Rain* | Wind** | Luminosity | Snow |
|---|---|---|---|---|---|---|---|
| 1787578045 | 31.11° C | 75% | 1019.4 hPa | 0 mm | - | 407 W/m² | - |
| 1787577740 | 31.11° C | 76% | 1019.4 hPa | 0 mm | - | 345 W/m² | - |
| 1787577436 | 30.56° C | 79% | 1019.4 hPa | 0 mm | - | 143 W/m² | - |
| 1787577133 | 30.56° C | 77% | 1019.2 hPa | 0 mm | - | 232 W/m² | - |
| 1787576829 | 30.56° C | 77% | 1019.4 hPa | 0 mm | - | 302 W/m² | - |
| 1787576523 | 30.56° C | 76% | 1019.3 hPa | 0 mm | - | 112 W/m² | - |
| 1787576220 | 30° C | 79% | 1019.4 hPa | 0 mm | - | 69 W/m² | - |
| 1787575914 | 29.44° C | 82% | 1019.4 hPa | 0 mm | - | 76 W/m² | - |
| 1787575610 | 28.89° C | 84% | 1019.3 hPa | 0 mm | - | 77 W/m² | - |
| 1787575305 | 27.78° C | 86% | 1019.2 hPa | 0 mm | - | 77 W/m² | - |
| 1787575000 | 27.22° C | 92% | 1019.3 hPa | 0 mm | - | 65 W/m² | - |
| 1787574696 | 26.67° C | 95% | 1019.1 hPa | 0 mm | - | 58 W/m² | - |
| 1787574391 | 26.11° C | 97% | 1018.9 hPa | 0 mm | - | 56 W/m² | - |
| 1787574089 | 25.56° C | 97% | 1019.1 hPa | 0 mm | - | 48 W/m² | - |
| 1787573790 | 25° C | 97% | 1019.1 hPa | 0 mm | - | 37 W/m² | - |
| 1787573489 | 25° C | 97% | 1018.6 hPa | 0 mm | - | 34 W/m² | - |
| 1787573186 | 25° C | 97% | 1018.7 hPa | 0 mm | - | 33 W/m² | - |
| 1787572882 | 24.44° C | 97% | 1018.7 hPa | 0 mm | - | 31 W/m² | - |
| 1787572577 | 24.44° C | 97% | 1018.7 hPa | 0 mm | - | 29 W/m² | - |
| 1787572276 | 24.44° C | 97% | 1018.5 hPa | 0 mm | - | 27 W/m² | - |
| 1787571971 | 24.44° C | 97% | 1018.6 hPa | 0 mm | - | 25 W/m² | - |
| 1787571671 | 24.44° C | 97% | 1018.5 hPa | 0 mm | - | 22 W/m² | - |
| 1787571370 | 24.44° C | 97% | 1018.5 hPa | 0 mm | - | 20 W/m² | - |
| 1787571065 | 24.44° C | 97% | 1018.5 hPa | 0 mm | - | 17 W/m² | - |
| 1787570761 | 24.44° C | 97% | 1018.5 hPa | 0 mm | - | 14 W/m² | - |
* Rain latest hour (hover to see other rain measurements)
** Current wind speed in m/s (hover to see current wind gust speed)